sensor_id;sensor_type;location;lat;lon;timestamp;pressure;altitude;pressure_sealevel;temperature;humidity
2761;BME280;15420;48.636;9.798;2023-02-18T00:01:26;97558.34;;;13.64;84.86
2761;BME280;15420;48.636;9.798;2023-02-18T00:03:54;97539.31;;;13.64;83.50
2761;BME280;15420;48.636;9.798;2023-02-18T00:06:22;97557.53;;;13.67;84.76
2761;BME280;15420;48.636;9.798;2023-02-18T00:08:52;97562.66;;;13.65;84.51
2761;BME280;15420;48.636;9.798;2023-02-18T00:11:22;97566.13;;;13.66;84.55
2761;BME280;15420;48.636;9.798;2023-02-18T00:13:56;97578.28;;;13.68;84.27
2761;BME280;15420;48.636;9.798;2023-02-18T00:16:23;97552.34;;;13.67;84.40
2761;BME280;15420;48.636;9.798;2023-02-18T00:18:52;97552.31;;;13.65;85.27
2761;BME280;15420;48.636;9.798;2023-02-18T00:21:19;97558.47;;;13.70;86.27
2761;BME280;15420;48.636;9.798;2023-02-18T00:23:48;97541.16;;;13.68;84.65
2761;BME280;15420;48.636;9.798;2023-02-18T00:26:15;97544.56;;;13.67;85.51
2761;BME280;15420;48.636;9.798;2023-02-18T00:28:48;97537.69;;;13.67;85.88
2761;BME280;15420;48.636;9.798;2023-02-18T00:31:32;97539.38;;;13.65;84.79
2761;BME280;15420;48.636;9.798;2023-02-18T00:34:02;97531.59;;;13.65;85.55
2761;BME280;15420;48.636;9.798;2023-02-18T00:36:31;97533.34;;;13.66;85.02
2761;BME280;15420;48.636;9.798;2023-02-18T00:38:59;97530.75;;;13.66;84.55
2761;BME280;15420;48.636;9.798;2023-02-18T00:41:27;97526.44;;;13.67;84.85
2761;BME280;15420;48.636;9.798;2023-02-18T00:43:54;97528.16;;;13.66;85.07
2761;BME280;15420;48.636;9.798;2023-02-18T00:46:24;97515.22;;;13.66;84.80
2761;BME280;15420;48.636;9.798;2023-02-18T00:48:51;97519.56;;;13.67;85.20
2761;BME280;15420;48.636;9.798;2023-02-18T00:51:17;97535.97;;;13.68;85.69
2761;BME280;15420;48.636;9.798;2023-02-18T00:53:44;97540.25;;;13.66;85.31
2761;BME280;15420;48.636;9.798;2023-02-18T00:56:10;97528.19;;;13.68;85.27
2761;BME280;15420;48.636;9.798;2023-02-18T00:58:39;97537.69;;;13.67;84.96
2761;BME280;15420;48.636;9.798;2023-02-18T01:01:06;97537.66;;;13.66;84.59
2761;BME280;15420;48.636;9.798;2023-02-18T01:03:32;97529.94;;;13.69;84.87
2761;BME280;15420;48.636;9.798;2023-02-18T01:06:01;97542.84;;;13.67;85.02
2761;BME280;15420;48.636;9.798;2023-02-18T01:08:29;97534.19;;;13.65;85.00
2761;BME280;15420;48.636;9.798;2023-02-18T01:10:57;97526.50;;;13.70;85.35
2761;BME280;15420;48.636;9.798;2023-02-18T01:13:25;97520.41;;;13.66;83.97
2761;BME280;15420;48.636;9.798;2023-02-18T01:15:51;97528.19;;;13.68;83.42
2761;BME280;15420;48.636;9.798;2023-02-18T01:18:23;97517.84;;;13.68;83.19
2761;BME280;15420;48.636;9.798;2023-02-18T01:20:51;97524.72;;;13.67;83.96
2761;BME280;15420;48.636;9.798;2023-02-18T01:23:20;97538.63;;;13.71;84.60
2761;BME280;15420;48.636;9.798;2023-02-18T01:25:49;97534.25;;;13.68;84.67
2761;BME280;15420;48.636;9.798;2023-02-18T01:28:16;97542.06;;;13.70;83.82
2761;BME280;15420;48.636;9.798;2023-02-18T01:30:42;97533.38;;;13.68;84.32
2761;BME280;15420;48.636;9.798;2023-02-18T01:33:09;97528.28;;;13.72;84.13
2761;BME280;15420;48.636;9.798;2023-02-18T01:35:38;97525.63;;;13.69;84.18
2761;BME280;15420;48.636;9.798;2023-02-18T01:38:09;97523.00;;;13.68;83.30
2761;BME280;15420;48.636;9.798;2023-02-18T01:40:42;97501.41;;;13.67;83.53
2761;BME280;15420;48.636;9.798;2023-02-18T01:43:10;97499.63;;;13.63;83.80
2761;BME280;15420;48.636;9.798;2023-02-18T01:53:52;97507.44;;;13.66;83.48
2761;BME280;15420;48.636;9.798;2023-02-18T01:59:30;97506.53;;;13.64;83.60
2761;BME280;15420;48.636;9.798;2023-02-18T02:01:57;97500.47;;;13.64;83.04
2761;BME280;15420;48.636;9.798;2023-02-18T02:04:27;97492.72;;;13.64;83.56
2761;BME280;15420;48.636;9.798;2023-02-18T02:06:55;97503.06;;;13.64;83.59
2761;BME280;15420;48.636;9.798;2023-02-18T02:09:24;97501.34;;;13.64;83.94
2761;BME280;15420;48.636;9.798;2023-02-18T02:12:14;97500.56;;;13.67;83.43
2761;BME280;15420;48.636;9.798;2023-02-18T02:30:32;97481.47;;;13.62;82.23
2761;BME280;15420;48.636;9.798;2023-02-18T02:46:51;97478.22;;;13.72;80.72
2761;BME280;15420;48.636;9.798;2023-02-18T02:49:52;97458.31;;;13.69;80.97
2761;BME280;15420;48.636;9.798;2023-02-18T02:52:29;97466.00;;;13.66;81.09
2761;BME280;15420;48.636;9.798;2023-02-18T02:54:55;97472.19;;;13.73;81.90
2761;BME280;15420;48.636;9.798;2023-02-18T02:59:57;97470.44;;;13.72;80.97
2761;BME280;15420;48.636;9.798;2023-02-18T03:05:55;97456.59;;;13.70;79.96
2761;BME280;15420;48.636;9.798;2023-02-18T03:08:47;97467.88;;;13.73;81.14
2761;BME280;15420;48.636;9.798;2023-02-18T03:11:16;97458.31;;;13.69;81.42
2761;BME280;15420;48.636;9.798;2023-02-18T03:14:12;97467.91;;;13.75;82.00
2761;BME280;15420;48.636;9.798;2023-02-18T03:17:01;97470.53;;;13.77;81.00
2761;BME280;15420;48.636;9.798;2023-02-18T03:19:45;97465.25;;;13.72;80.62
2761;BME280;15420;48.636;9.798;2023-02-18T03:22:22;97464.38;;;13.71;80.08
2761;BME280;15420;48.636;9.798;2023-02-18T03:24:53;97470.38;;;13.69;79.99
2761;BME280;15420;48.636;9.798;2023-02-18T03:27:27;97474.75;;;13.71;80.35
2761;BME280;15420;48.636;9.798;2023-02-18T03:30:17;97464.41;;;13.73;78.93
2761;BME280;15420;48.636;9.798;2023-02-18T03:32:49;97461.72;;;13.68;78.69
2761;BME280;15420;48.636;9.798;2023-02-18T03:35:18;97465.19;;;13.69;78.84
2761;BME280;15420;48.636;9.798;2023-02-18T03:38:01;97462.66;;;13.72;80.06
2761;BME280;15420;48.636;9.798;2023-02-18T03:40:31;97465.16;;;13.67;78.15
2761;BME280;15420;48.636;9.798;2023-02-18T03:42:58;97459.16;;;13.68;78.71
2761;BME280;15420;48.636;9.798;2023-02-18T03:45:25;97460.88;;;13.69;79.38
2761;BME280;15420;48.636;9.798;2023-02-18T03:47:52;97449.66;;;13.69;78.49
2761;BME280;15420;48.636;9.798;2023-02-18T03:50:20;97447.06;;;13.69;78.17
2761;BME280;15420;48.636;9.798;2023-02-18T03:52:48;97453.13;;;13.69;79.02
2761;BME280;15420;48.636;9.798;2023-02-18T03:55:17;97440.16;;;13.69;78.99
2761;BME280;15420;48.636;9.798;2023-02-18T03:57:45;97444.47;;;13.69;79.40
2761;BME280;15420;48.636;9.798;2023-02-18T04:00:14;97447.94;;;13.69;79.21
2761;BME280;15420;48.636;9.798;2023-02-18T04:02:40;97447.06;;;13.69;79.81
2761;BME280;15420;48.636;9.798;2023-02-18T04:05:07;97447.94;;;13.69;80.64
2761;BME280;15420;48.636;9.798;2023-02-18T04:07:33;97445.34;;;13.69;79.13
2761;BME280;15420;48.636;9.798;2023-02-18T04:10:04;97452.25;;;13.69;80.70
2761;BME280;15420;48.636;9.798;2023-02-18T04:12:36;97446.22;;;13.70;79.95
2761;BME280;15420;48.636;9.798;2023-02-18T04:15:05;97447.94;;;13.69;79.76
2761;BME280;15420;48.636;9.798;2023-02-18T04:17:32;97435.84;;;13.68;79.08
2761;BME280;15420;48.636;9.798;2023-02-18T04:19:59;97456.59;;;13.70;79.80
2761;BME280;15420;48.636;9.798;2023-02-18T04:22:25;97459.16;;;13.68;78.61
2761;BME280;15420;48.636;9.798;2023-02-18T04:24:51;97460.00;;;13.69;78.35
2761;BME280;15420;48.636;9.798;2023-02-18T04:27:18;97451.41;;;13.70;78.06
2761;BME280;15420;48.636;9.798;2023-02-18T04:29:46;97453.13;;;13.69;77.26
2761;BME280;15420;48.636;9.798;2023-02-18T04:32:17;97445.34;;;13.69;77.61
2761;BME280;15420;48.636;9.798;2023-02-18T04:34:43;97454.00;;;13.70;77.83
2761;BME280;15420;48.636;9.798;2023-02-18T04:37:09;97456.59;;;13.70;78.26
2761;BME280;15420;48.636;9.798;2023-02-18T04:39:40;97449.69;;;13.70;77.84
2761;BME280;15420;48.636;9.798;2023-02-18T04:42:06;97447.94;;;13.69;76.71
2761;BME280;15420;48.636;9.798;2023-02-18T04:44:37;97445.31;;;13.68;77.06
2761;BME280;15420;48.636;9.798;2023-02-18T04:47:04;97439.28;;;13.67;75.85
2761;BME280;15420;48.636;9.798;2023-02-18T04:49:31;97451.38;;;13.68;75.23
2761;BME280;15420;48.636;9.798;2023-02-18T04:51:57;97437.56;;;13.68;75.77
2761;BME280;15420;48.636;9.798;2023-02-18T04:54:23;97435.81;;;13.67;74.55
2761;BME280;15420;48.636;9.798;2023-02-18T04:56:50;97446.16;;;13.67;75.48
2761;BME280;15420;48.636;9.798;2023-02-18T04:59:18;97446.94;;;13.63;74.17
2761;BME280;15420;48.636;9.798;2023-02-18T05:01:44;97451.31;;;13.65;75.46
2761;BME280;15420;48.636;9.798;2023-02-18T05:04:13;97460.75;;;13.62;74.00
2761;BME280;15420;48.636;9.798;2023-02-18T05:06:42;97446.00;;;13.59;73.93
2761;BME280;15420;48.636;9.798;2023-02-18T05:09:11;97456.31;;;13.56;74.97
2761;BME280;15420;48.636;9.798;2023-02-18T05:11:37;97444.19;;;13.54;75.40
2761;BME280;15420;48.636;9.798;2023-02-18T05:14:06;97442.44;;;13.51;76.57
2761;BME280;15420;48.636;9.798;2023-02-18T05:16:32;97455.31;;;13.48;75.92
2761;BME280;15420;48.636;9.798;2023-02-18T05:18:58;97443.16;;;13.44;75.64
2761;BME280;15420;48.636;9.798;2023-02-18T05:21:30;97460.38;;;13.42;76.85
2761;BME280;15420;48.636;9.798;2023-02-18T05:23:56;97449.09;;;13.40;75.90
2761;BME280;15420;48.636;9.798;2023-02-18T05:26:22;97449.97;;;13.40;77.01
2761;BME280;15420;48.636;9.798;2023-02-18T05:28:53;97449.09;;;13.40;75.93
2761;BME280;15420;48.636;9.798;2023-02-18T05:31:24;97446.50;;;13.40;77.12
2761;BME280;15420;48.636;9.798;2023-02-18T05:33:50;97449.97;;;13.40;78.22
2761;BME280;15420;48.636;9.798;2023-02-18T05:36:17;97451.69;;;13.40;77.75
2761;BME280;15420;48.636;9.798;2023-02-18T05:38:45;97456.00;;;13.39;77.17
2761;BME280;15420;48.636;9.798;2023-02-18T05:41:11;97452.53;;;13.39;77.83
2761;BME280;15420;48.636;9.798;2023-02-18T05:43:37;97449.94;;;13.39;78.44
2761;BME280;15420;48.636;9.798;2023-02-18T05:46:22;97452.53;;;13.39;79.50
2761;BME280;15420;48.636;9.798;2023-02-18T05:48:48;97448.19;;;13.38;79.33
2761;BME280;15420;48.636;9.798;2023-02-18T05:51:15;97441.31;;;13.38;79.55
2761;BME280;15420;48.636;9.798;2023-02-18T05:53:41;97431.78;;;13.37;80.60
2761;BME280;15420;48.636;9.798;2023-02-18T05:56:08;97425.75;;;13.37;79.87
2761;BME280;15420;48.636;9.798;2023-02-18T05:58:36;97443.00;;;13.36;80.21
2761;BME280;15420;48.636;9.798;2023-02-18T06:01:03;97443.00;;;13.36;79.33
2761;BME280;15420;48.636;9.798;2023-02-18T06:03:29;97440.41;;;13.36;80.63
2761;BME280;15420;48.636;9.798;2023-02-18T06:05:55;97453.38;;;13.38;81.56
2761;BME280;15420;48.636;9.798;2023-02-18T06:08:21;97450.78;;;13.38;80.79
2761;BME280;15420;48.636;9.798;2023-02-18T06:10:47;97445.63;;;13.38;80.99
2761;BME280;15420;48.636;9.798;2023-02-18T06:13:18;97452.50;;;13.37;80.65
2761;BME280;15420;48.636;9.798;2023-02-18T06:15:44;97449.94;;;13.39;81.65
2761;BME280;15420;48.636;9.798;2023-02-18T06:18:10;97449.09;;;13.40;81.20
2761;BME280;15420;48.636;9.798;2023-02-18T06:20:37;97436.16;;;13.40;81.32
2761;BME280;15420;48.636;9.798;2023-02-18T06:23:04;97452.56;;;13.40;82.17
2761;BME280;15420;48.636;9.798;2023-02-18T06:25:32;97438.72;;;13.38;81.90
2761;BME280;15420;48.636;9.798;2023-02-18T06:28:01;97454.31;;;13.41;83.41
2761;BME280;15420;48.636;9.798;2023-02-18T06:30:29;97448.25;;;13.41;83.02
2761;BME280;15420;48.636;9.798;2023-02-18T06:32:55;97436.19;;;13.41;83.60
2761;BME280;15420;48.636;9.798;2023-02-18T06:35:24;97442.25;;;13.42;82.23
2761;BME280;15420;48.636;9.798;2023-02-18T06:37:52;97446.56;;;13.41;82.22
2761;BME280;15420;48.636;9.798;2023-02-18T06:40:23;97445.72;;;13.43;82.41
2761;BME280;15420;48.636;9.798;2023-02-18T06:42:49;97434.47;;;13.42;82.28
2761;BME280;15420;48.636;9.798;2023-02-18T06:45:15;97442.25;;;13.42;82.64
2761;BME280;15420;48.636;9.798;2023-02-18T06:47:41;97446.59;;;13.43;81.26
2761;BME280;15420;48.636;9.798;2023-02-18T06:50:07;97453.50;;;13.44;82.29
2761;BME280;15420;48.636;9.798;2023-02-18T06:52:34;97447.47;;;13.45;82.71
2761;BME280;15420;48.636;9.798;2023-02-18T06:55:00;97448.31;;;13.44;82.41
2761;BME280;15420;48.636;9.798;2023-02-18T06:57:26;97456.97;;;13.45;81.33
2761;BME280;15420;48.636;9.798;2023-02-18T06:59:52;97445.78;;;13.46;81.93
2761;BME280;15420;48.636;9.798;2023-02-18T07:02:21;97450.09;;;13.47;82.44
2761;BME280;15420;48.636;9.798;2023-02-18T07:04:49;97445.84;;;13.49;81.56
2761;BME280;15420;48.636;9.798;2023-02-18T07:07:16;97464.81;;;13.49;81.81
2761;BME280;15420;48.636;9.798;2023-02-18T07:09:42;97453.63;;;13.50;81.78
2761;BME280;15420;48.636;9.798;2023-02-18T07:12:08;97448.44;;;13.50;81.43
2761;BME280;15420;48.636;9.798;2023-02-18T07:14:34;97442.44;;;13.51;81.35
2761;BME280;15420;48.636;9.798;2023-02-18T07:17:03;97440.72;;;13.52;82.39
2761;BME280;15420;48.636;9.798;2023-02-18T07:19:31;97424.34;;;13.54;81.90
2761;BME280;15420;48.636;9.798;2023-02-18T07:21:57;97432.94;;;13.53;80.42
2761;BME280;15420;48.636;9.798;2023-02-18T07:24:28;97428.63;;;13.54;81.42
2761;BME280;15420;48.636;9.798;2023-02-18T07:26:55;97417.41;;;13.53;80.64
2761;BME280;15420;48.636;9.798;2023-02-18T07:29:21;97429.50;;;13.54;79.50
2761;BME280;15420;48.636;9.798;2023-02-18T07:31:49;97438.22;;;13.58;80.94
2761;BME280;15420;48.636;9.798;2023-02-18T07:34:20;97424.41;;;13.57;80.92
2761;BME280;15420;48.636;9.798;2023-02-18T07:36:49;97436.53;;;13.60;80.38
2761;BME280;15420;48.636;9.798;2023-02-18T07:39:15;97429.66;;;13.62;80.36
2761;BME280;15420;48.636;9.798;2023-02-18T07:41:46;97431.38;;;13.61;80.13
2761;BME280;15420;48.636;9.798;2023-02-18T07:44:15;97429.69;;;13.63;80.68
2761;BME280;15420;48.636;9.798;2023-02-18T07:46:43;97423.63;;;13.61;79.40
2761;BME280;15420;48.636;9.798;2023-02-18T07:49:11;97431.41;;;13.63;79.77
2761;BME280;15420;48.636;9.798;2023-02-18T07:51:40;97432.31;;;13.65;78.97
2761;BME280;15420;48.636;9.798;2023-02-18T07:54:06;97401.25;;;13.66;80.48
2761;BME280;15420;48.636;9.798;2023-02-18T07:56:32;97422.09;;;13.72;80.71
2761;BME280;15420;48.636;9.798;2023-02-18T07:59:01;97428.09;;;13.70;79.76
2761;BME280;15420;48.636;9.798;2023-02-18T08:01:27;97420.28;;;13.68;79.14
2761;BME280;15420;48.636;9.798;2023-02-18T08:03:53;97417.72;;;13.70;79.38
2761;BME280;15420;48.636;9.798;2023-02-18T08:06:37;97414.34;;;13.72;79.19
2761;BME280;15420;48.636;9.798;2023-02-18T08:09:06;97406.53;;;13.71;79.80
2761;BME280;15420;48.636;9.798;2023-02-18T08:11:33;97405.69;;;13.72;79.49
2761;BME280;15420;48.636;9.798;2023-02-18T08:13:59;97422.09;;;13.72;78.99
2761;BME280;15420;48.636;9.798;2023-02-18T08:16:25;97414.38;;;13.75;79.45
2761;BME280;15420;48.636;9.798;2023-02-18T08:18:55;97411.84;;;13.79;78.87
2761;BME280;15420;48.636;9.798;2023-02-18T08:21:23;97409.25;;;13.79;79.33
2761;BME280;15420;48.636;9.798;2023-02-18T08:23:49;97418.84;;;13.83;79.75
2761;BME280;15420;48.636;9.798;2023-02-18T08:26:16;97413.72;;;13.86;78.68
2761;BME280;15420;48.636;9.798;2023-02-18T08:28:46;97418.00;;;13.84;79.02
2761;BME280;15420;48.636;9.798;2023-02-18T08:31:21;97411.19;;;13.89;78.81
2761;BME280;15420;48.636;9.798;2023-02-18T08:33:48;97415.47;;;13.87;78.05
2761;BME280;15420;48.636;9.798;2023-02-18T08:36:16;97408.66;;;13.93;78.25
2761;BME280;15420;48.636;9.798;2023-02-18T08:38:45;97410.38;;;13.93;79.19
2761;BME280;15420;48.636;9.798;2023-02-18T08:41:12;97401.72;;;13.91;78.16
2761;BME280;15420;48.636;9.798;2023-02-18T08:43:42;97393.19;;;13.96;78.54
2761;BME280;15420;48.636;9.798;2023-02-18T08:46:10;97406.97;;;13.95;77.44
2761;BME280;15420;48.636;9.798;2023-02-18T08:48:37;97401.81;;;13.95;78.15
2761;BME280;15420;48.636;9.798;2023-02-18T08:51:18;97400.16;;;14.00;77.56
2761;BME280;15420;48.636;9.798;2023-02-18T08:53:44;97399.25;;;13.98;77.67
2761;BME280;15420;48.636;9.798;2023-02-18T08:56:12;97389.81;;;14.00;77.26
2761;BME280;15420;48.636;9.798;2023-02-18T08:58:42;97399.38;;;14.04;78.15
2761;BME280;15420;48.636;9.798;2023-02-18T09:01:11;97390.72;;;14.04;77.26
2761;BME280;15420;48.636;9.798;2023-02-18T09:03:38;97400.19;;;14.02;77.39
2761;BME280;15420;48.636;9.798;2023-02-18T09:06:07;97383.88;;;14.07;77.27
2761;BME280;15420;48.636;9.798;2023-02-18T09:08:36;97383.00;;;14.07;76.84
2761;BME280;15420;48.636;9.798;2023-02-18T09:11:03;97381.34;;;14.11;76.85
2761;BME280;15420;48.636;9.798;2023-02-18T09:13:30;97397.75;;;14.11;76.63
2761;BME280;15420;48.636;9.798;2023-02-18T09:18:27;97379.63;;;14.13;77.16
2761;BME280;15420;48.636;9.798;2023-02-18T09:20:56;97383.16;;;14.16;76.53
2761;BME280;15420;48.636;9.798;2023-02-18T09:23:27;97378.84;;;14.17;76.21
2761;BME280;15420;48.636;9.798;2023-02-18T09:25:57;97386.63;;;14.17;75.82
2761;BME280;15420;48.636;9.798;2023-02-18T09:28:24;97382.38;;;14.20;76.02
2761;BME280;15420;48.636;9.798;2023-02-18T09:30:50;97375.47;;;14.22;75.99
2761;BME280;15420;48.636;9.798;2023-02-18T09:33:17;97380.75;;;14.27;75.69
2761;BME280;15420;48.636;9.798;2023-02-18T09:35:44;97373.00;;;14.28;75.18
2761;BME280;15420;48.636;9.798;2023-02-18T09:38:16;97381.69;;;14.32;75.06
2761;BME280;15420;48.636;9.798;2023-02-18T09:40:50;97360.03;;;14.28;74.99
2761;BME280;15420;48.636;9.798;2023-02-18T09:46:39;97374.88;;;14.38;75.37
2761;BME280;15420;48.636;9.798;2023-02-18T09:49:27;97355.84;;;14.38;74.90
2761;BME280;15420;48.636;9.798;2023-02-18T09:52:09;97366.22;;;14.38;73.76
2761;BME280;15420;48.636;9.798;2023-02-18T09:54:39;97344.66;;;14.40;74.16
2761;BME280;15420;48.636;9.798;2023-02-18T10:00:09;97345.63;;;14.44;73.89
2761;BME280;15420;48.636;9.798;2023-02-18T10:02:44;97343.94;;;14.48;73.39
2761;BME280;15420;48.636;9.798;2023-02-18T10:05:15;97340.50;;;14.49;74.03
2761;BME280;15420;48.636;9.798;2023-02-18T10:07:45;97338.78;;;14.51;73.90
2761;BME280;15420;48.636;9.798;2023-02-18T10:10:39;97340.59;;;14.58;73.62
2761;BME280;15420;48.636;9.798;2023-02-18T10:13:13;97346.63;;;14.54;73.71
2761;BME280;15420;48.636;9.798;2023-02-18T10:15:41;97348.38;;;14.58;73.90
2761;BME280;15420;48.636;9.798;2023-02-18T10:21:08;97338.09;;;14.65;73.67
2761;BME280;15420;48.636;9.798;2023-02-18T10:23:56;97349.31;;;14.63;73.63
2761;BME280;15420;48.636;9.798;2023-02-18T10:26:24;97338.09;;;14.64;73.51
2761;BME280;15420;48.636;9.798;2023-02-18T10:28:50;97337.28;;;14.68;73.81
2761;BME280;15420;48.636;9.798;2023-02-18T10:34:35;97348.63;;;14.76;73.46
2761;BME280;15420;48.636;9.798;2023-02-18T10:43:15;97350.47;;;14.85;72.83
2761;BME280;15420;48.636;9.798;2023-02-18T10:51:28;97343.66;;;14.91;73.61
2761;BME280;15420;48.636;9.798;2023-02-18T10:53:57;97349.69;;;14.90;73.27
2761;BME280;15420;48.636;9.798;2023-02-18T10:59:08;97339.38;;;14.95;73.74
2761;BME280;15420;48.636;9.798;2023-02-18T11:01:37;97336.84;;;15.01;73.85
2761;BME280;15420;48.636;9.798;2023-02-18T11:04:11;97338.69;;;15.08;73.67
2761;BME280;15420;48.636;9.798;2023-02-18T11:12:32;97334.47;;;15.19;74.00
2761;BME280;15420;48.636;9.798;2023-02-18T11:17:42;97333.56;;;15.16;73.55
2761;BME280;15420;48.636;9.798;2023-02-18T11:20:29;97328.44;;;15.20;73.76
2761;BME280;15420;48.636;9.798;2023-02-18T11:23:19;97316.44;;;15.31;73.10
2761;BME280;15420;48.636;9.798;2023-02-18T11:25:59;97321.53;;;15.22;73.42
2761;BME280;15420;48.636;9.798;2023-02-18T11:31:21;97331.81;;;15.13;73.88
2761;BME280;15420;48.636;9.798;2023-02-18T11:33:54;97308.50;;;15.18;73.58
2761;BME280;15420;48.636;9.798;2023-02-18T11:36:31;97316.44;;;15.30;73.33
2761;BME280;15420;48.636;9.798;2023-02-18T11:39:04;97313.72;;;15.21;73.65
2761;BME280;15420;48.636;9.798;2023-02-18T11:42:02;97306.97;;;15.35;72.16
2761;BME280;15420;48.636;9.798;2023-02-18T11:44:35;97310.38;;;15.31;71.92
2761;BME280;15420;48.636;9.798;2023-02-18T11:49:33;97306.09;;;15.34;70.97
2761;BME280;15420;48.636;9.798;2023-02-18T11:54:33;97303.50;;;15.36;70.88
2761;BME280;15420;48.636;9.798;2023-02-18T11:57:04;97296.59;;;15.35;71.09
2761;BME280;15420;48.636;9.798;2023-02-18T11:59:35;97300.16;;;15.45;70.73
2761;BME280;15420;48.636;9.798;2023-02-18T12:02:24;97286.28;;;15.44;70.70
2761;BME280;15420;48.636;9.798;2023-02-18T12:05:00;97295.00;;;15.49;69.55
2761;BME280;15420;48.636;9.798;2023-02-18T12:07:43;97291.50;;;15.47;70.32
2761;BME280;15420;48.636;9.798;2023-02-18T12:10:33;97283.72;;;15.46;69.34
2761;BME280;15420;48.636;9.798;2023-02-18T12:16:23;97265.53;;;15.47;69.59
2761;BME280;15420;48.636;9.798;2023-02-18T12:21:43;97273.41;;;15.55;69.45
2761;BME280;15420;48.636;9.798;2023-02-18T12:32:48;97284.59;;;15.48;68.84
2761;BME280;15420;48.636;9.798;2023-02-18T12:36:03;97259.53;;;15.51;68.53
2761;BME280;15420;48.636;9.798;2023-02-18T12:41:37;97274.22;;;15.49;67.90
2761;BME280;15420;48.636;9.798;2023-02-18T13:09:32;97231.72;;;15.40;68.08
2761;BME280;15420;48.636;9.798;2023-02-18T13:12:14;97228.25;;;15.41;67.58
2761;BME280;15420;48.636;9.798;2023-02-18T13:17:16;97223.91;;;15.38;68.18
2761;BME280;15420;48.636;9.798;2023-02-18T13:19:56;97217.91;;;15.44;67.24
2761;BME280;15420;48.636;9.798;2023-02-18T13:22:28;97215.28;;;15.44;67.89
2761;BME280;15420;48.636;9.798;2023-02-18T13:25:00;97222.22;;;15.45;67.76
2761;BME280;15420;48.636;9.798;2023-02-18T13:27:36;97216.19;;;15.46;67.31
2761;BME280;15420;48.636;9.798;2023-02-18T13:41:01;97213.50;;;15.35;67.62
2761;BME280;15420;48.636;9.798;2023-02-18T13:43:29;97210.94;;;15.40;67.67
2761;BME280;15420;48.636;9.798;2023-02-18T13:49:06;97211.75;;;15.35;66.98
2761;BME280;15420;48.636;9.798;2023-02-18T13:56:49;97205.69;;;15.35;66.97
2761;BME280;15420;48.636;9.798;2023-02-18T13:59:49;97208.28;;;15.35;67.57
2761;BME280;15420;48.636;9.798;2023-02-18T14:20:44;97179.78;;;15.40;67.07
2761;BME280;15420;48.636;9.798;2023-02-18T14:28:43;97157.16;;;15.28;66.80
2761;BME280;15420;48.636;9.798;2023-02-18T14:45:02;97147.69;;;15.34;66.31
2761;BME280;15420;48.636;9.798;2023-02-18T14:50:11;97134.78;;;15.42;67.31
2761;BME280;15420;48.636;9.798;2023-02-18T14:55:36;97127.88;;;15.47;66.16
2761;BME280;15420;48.636;9.798;2023-02-18T14:58:07;97136.53;;;15.46;66.19
2761;BME280;15420;48.636;9.798;2023-02-18T15:00:41;97150.38;;;15.44;66.77
2761;BME280;15420;48.636;9.798;2023-02-18T15:03:15;97146.88;;;15.40;66.90
2761;BME280;15420;48.636;9.798;2023-02-18T15:05:43;97136.47;;;15.38;66.78
2761;BME280;15420;48.636;9.798;2023-02-18T15:08:18;97149.47;;;15.40;66.41
2761;BME280;15420;48.636;9.798;2023-02-18T15:13:30;97153.81;;;15.41;66.00
2761;BME280;15420;48.636;9.798;2023-02-18T15:16:08;97147.78;;;15.44;65.74
2761;BME280;15420;48.636;9.798;2023-02-18T15:18:42;97150.34;;;15.42;66.07
2761;BME280;15420;48.636;9.798;2023-02-18T15:21:21;97153.84;;;15.44;66.38
2761;BME280;15420;48.636;9.798;2023-02-18T15:23:50;97148.63;;;15.43;65.48
2761;BME280;15420;48.636;9.798;2023-02-18T15:26:16;97143.41;;;15.38;65.17
2761;BME280;15420;48.636;9.798;2023-02-18T15:28:55;97146.06;;;15.46;64.38
2761;BME280;15420;48.636;9.798;2023-02-18T15:31:27;97142.59;;;15.44;65.39
2761;BME280;15420;48.636;9.798;2023-02-18T15:33:54;97143.44;;;15.41;64.30
2761;BME280;15420;48.636;9.798;2023-02-18T15:36:24;97138.25;;;15.43;64.93
2761;BME280;15420;48.636;9.798;2023-02-18T15:38:56;97144.44;;;15.57;62.80
2761;BME280;15420;48.636;9.798;2023-02-18T15:41:22;97137.41;;;15.47;63.60
2761;BME280;15420;48.636;9.798;2023-02-18T15:44:00;97135.69;;;15.49;63.19
2761;BME280;15420;48.636;9.798;2023-02-18T15:46:31;97139.97;;;15.44;63.90
2761;BME280;15420;48.636;9.798;2023-02-18T15:48:58;97152.94;;;15.39;63.55
2761;BME280;15420;48.636;9.798;2023-02-18T15:51:28;97148.63;;;15.43;63.56
2761;BME280;15420;48.636;9.798;2023-02-18T15:53:59;97155.53;;;15.39;63.21
2761;BME280;15420;48.636;9.798;2023-02-18T15:56:36;97135.56;;;15.32;64.02
2761;BME280;15420;48.636;9.798;2023-02-18T15:59:20;97145.94;;;15.30;63.78
2761;BME280;15420;48.636;9.798;2023-02-18T16:01:51;97148.56;;;15.33;64.59
2761;BME280;15420;48.636;9.798;2023-02-18T16:04:22;97136.47;;;15.35;63.97
2761;BME280;15420;48.636;9.798;2023-02-18T16:06:51;97120.03;;;15.38;64.59
2761;BME280;15420;48.636;9.798;2023-02-18T16:09:28;97141.66;;;15.35;64.56
2761;BME280;15420;48.636;9.798;2023-02-18T16:12:01;97143.38;;;15.36;63.25
2761;BME280;15420;48.636;9.798;2023-02-18T16:14:57;97138.16;;;15.32;65.07
2761;BME280;15420;48.636;9.798;2023-02-18T16:17:28;97129.47;;;15.27;64.75
2761;BME280;15420;48.636;9.798;2023-02-18T16:20:00;97137.22;;;15.22;63.71
2761;BME280;15420;48.636;9.798;2023-02-18T16:27:48;97132.81;;;15.15;65.96
2761;BME280;15420;48.636;9.798;2023-02-18T16:30:26;97117.16;;;15.06;64.21
2761;BME280;15420;48.636;9.798;2023-02-18T16:32:56;97124.13;;;15.09;65.14
2761;BME280;15420;48.636;9.798;2023-02-18T16:35:25;97124.03;;;15.01;64.99
2761;BME280;15420;48.636;9.798;2023-02-18T16:37:53;97122.34;;;15.04;65.69
2761;BME280;15420;48.636;9.798;2023-02-18T16:40:32;97130.06;;;14.98;64.98
2761;BME280;15420;48.636;9.798;2023-02-18T16:43:02;97143.84;;;14.91;65.19
2761;BME280;15420;48.636;9.798;2023-02-18T16:45:35;97149.13;;;15.00;66.23
2761;BME280;15420;48.636;9.798;2023-02-18T16:48:04;97136.13;;;14.97;65.64
2761;BME280;15420;48.636;9.798;2023-02-18T16:50:32;97154.22;;;14.91;65.21
2761;BME280;15420;48.636;9.798;2023-02-18T16:53:01;97147.25;;;14.86;65.34
2761;BME280;15420;48.636;9.798;2023-02-18T16:55:28;97139.47;;;14.84;65.52
2761;BME280;15420;48.636;9.798;2023-02-18T16:57:58;97149.78;;;14.80;65.44